createdAt,value
2018-03-06T00:00:50.164Z,88.15
2018-03-06T00:01:50.141Z,87.96
2018-03-06T00:02:50.120Z,87.87
2018-03-06T00:03:50.107Z,87.96
2018-03-06T00:04:50.081Z,87.68
2018-03-06T00:05:50.058Z,87.77
2018-03-06T00:06:50.041Z,87.82
2018-03-06T00:07:50.020Z,88.48
2018-03-06T00:08:50.003Z,88.20
2018-03-06T00:09:49.989Z,87.62
2018-03-06T00:10:49.960Z,88.01
2018-03-06T00:11:49.940Z,88.10
2018-03-06T00:12:49.920Z,87.72
2018-03-06T00:13:49.901Z,87.72
2018-03-06T00:14:49.878Z,87.68
2018-03-06T00:15:49.860Z,87.58
2018-03-06T00:16:49.893Z,88.06
2018-03-06T00:17:49.824Z,86.91
2018-03-06T00:18:49.797Z,87.68
2018-03-06T00:19:49.780Z,87.30
2018-03-06T00:20:49.767Z,87.30
2018-03-06T00:21:49.740Z,86.91
2018-03-06T00:22:49.720Z,87.39
2018-03-06T00:23:49.693Z,87.96
2018-03-06T00:24:49.673Z,87.68
2018-03-06T00:25:49.658Z,87.96
2018-03-06T00:26:49.633Z,87.87
2018-03-06T00:27:49.618Z,87.87
2018-03-06T00:28:49.594Z,87.68
2018-03-06T00:29:49.575Z,88.34
2018-03-06T00:30:49.558Z,88.24
2018-03-06T00:31:49.532Z,88.43
2018-03-06T00:32:49.520Z,88.62
2018-03-06T00:33:49.499Z,88.24
2018-03-06T00:34:49.473Z,88.06
2018-03-06T00:35:49.449Z,88.24
2018-03-06T00:36:49.433Z,88.62
2018-03-06T00:37:49.405Z,88.34
2018-03-06T00:38:49.388Z,88.43
2018-03-06T00:39:49.370Z,88.81
2018-03-06T00:40:49.349Z,88.53
2018-03-06T00:41:49.325Z,88.72
2018-03-06T00:42:49.308Z,88.34
2018-03-06T00:43:49.286Z,89.00
2018-03-06T00:44:49.265Z,89.00
2018-03-06T00:45:49.248Z,88.62
2018-03-06T00:46:49.220Z,89.00
2018-03-06T00:47:49.202Z,89.00
2018-03-06T00:48:49.185Z,88.91
2018-03-06T00:49:49.162Z,88.91
2018-03-06T00:50:49.143Z,89.00
2018-03-06T00:51:49.118Z,89.10
2018-03-06T00:52:49.100Z,88.62
2018-03-06T00:53:49.080Z,88.91
2018-03-06T00:54:49.059Z,89.00
2018-03-06T00:55:49.040Z,88.72
2018-03-06T00:56:49.019Z,89.00
2018-03-06T00:57:48.997Z,88.62
2018-03-06T00:58:48.980Z,88.72
2018-03-06T00:59:48.967Z,89.29
2018-03-06T01:00:48.932Z,89.10
2018-03-06T01:01:48.912Z,88.81
2018-03-06T01:02:48.899Z,88.53
2018-03-06T01:03:48.879Z,88.91
2018-03-06T01:04:48.860Z,88.43
2018-03-06T01:05:48.829Z,89.20
2018-03-06T01:06:48.812Z,88.34
2018-03-06T01:07:48.789Z,88.06
2018-03-06T01:08:48.768Z,88.24
2018-03-06T01:09:48.749Z,88.48
2018-03-06T01:10:48.778Z,88.48
2018-03-06T01:11:48.709Z,88.48
2018-03-06T01:12:48.688Z,88.96
2018-03-06T01:13:48.664Z,89.43
2018-03-06T01:14:48.701Z,89.25
2018-03-06T01:15:48.622Z,89.15
2018-03-06T01:16:48.606Z,89.06
2018-03-06T01:17:48.585Z,89.34
2018-03-06T01:18:48.565Z,89.25
2018-03-06T01:19:48.539Z,89.91
2018-03-06T01:20:48.520Z,89.62
2018-03-06T01:21:48.503Z,89.53
2018-03-06T01:22:48.479Z,90.29
2018-03-06T01:23:48.460Z,90.00
2018-03-06T01:24:48.433Z,89.34
2018-03-06T01:25:48.419Z,89.25
2018-03-06T01:26:48.448Z,89.15
2018-03-06T01:27:48.377Z,89.06
2018-03-06T01:28:48.355Z,89.72
2018-03-06T01:29:48.337Z,89.15
2018-03-06T01:30:48.316Z,89.25
2018-03-06T01:31:48.295Z,89.81
2018-03-06T01:32:48.273Z,89.25
2018-03-06T01:33:48.249Z,89.62
2018-03-06T01:34:48.228Z,89.43
2018-03-06T01:35:48.207Z,89.81
2018-03-06T01:36:48.249Z,89.25
2018-03-06T01:37:48.169Z,89.43
2018-03-06T01:38:48.199Z,89.62
2018-03-06T01:39:48.126Z,89.62
2018-03-06T01:40:48.107Z,89.62
2018-03-06T01:41:48.094Z,89.43
2018-03-06T01:42:48.071Z,89.34
2018-03-06T01:43:48.044Z,89.34
2018-03-06T01:44:48.020Z,89.53
2018-03-06T01:45:47.999Z,89.81
2018-03-06T01:46:47.978Z,89.53
2018-03-06T01:47:47.961Z,89.62
2018-03-06T01:48:47.940Z,89.62
2018-03-06T01:49:47.928Z,89.72
2018-03-06T01:50:47.901Z,89.81
2018-03-06T01:51:47.876Z,89.06
2018-03-06T01:52:47.863Z,89.91
2018-03-06T01:53:47.841Z,89.72
2018-03-06T01:54:47.815Z,89.53
2018-03-06T01:55:47.796Z,89.72
2018-03-06T01:56:47.770Z,88.96
2018-03-06T01:57:47.758Z,89.43
2018-03-06T01:58:47.724Z,89.53
2018-03-06T01:59:47.713Z,89.34
2018-03-06T02:00:47.684Z,89.72
2018-03-06T02:01:47.667Z,89.53
2018-03-06T02:02:47.651Z,89.34
2018-03-06T02:03:47.622Z,89.91
2018-03-06T02:04:47.599Z,89.53
2018-03-06T02:05:47.579Z,89.91
2018-03-06T02:06:47.560Z,90.00
2018-03-06T02:07:47.539Z,89.72
2018-03-06T02:08:47.516Z,89.91
2018-03-06T02:09:47.497Z,89.81
2018-03-06T02:10:47.481Z,90.19
2018-03-06T02:11:47.462Z,90.00
2018-03-06T02:12:47.435Z,90.00
2018-03-06T02:13:47.413Z,90.00
2018-03-06T02:14:47.395Z,89.91
2018-03-06T02:15:47.619Z,90.48
2018-03-06T02:16:47.351Z,90.19
2018-03-06T02:17:47.329Z,90.48
2018-03-06T02:18:47.307Z,90.67
2018-03-06T02:19:47.288Z,90.38
2018-03-06T02:20:47.267Z,89.72
2018-03-06T02:21:47.246Z,90.10
2018-03-06T02:22:47.229Z,90.10
2018-03-06T02:23:47.205Z,89.72
2018-03-06T02:24:47.179Z,90.10
2018-03-06T02:25:47.159Z,89.91
2018-03-06T02:26:47.193Z,89.81
2018-03-06T02:27:47.118Z,89.91
2018-03-06T02:28:47.165Z,89.81
2018-03-06T02:29:47.073Z,89.91
2018-03-06T02:30:47.214Z,90.00
2018-03-06T02:31:47.042Z,90.48
2018-03-06T02:32:47.143Z,89.86
2018-03-06T02:33:46.994Z,89.72
2018-03-06T02:34:46.976Z,89.67
2018-03-06T02:35:46.950Z,90.48
2018-03-06T02:36:46.930Z,90.15
2018-03-06T02:37:46.906Z,89.91
2018-03-06T02:38:46.986Z,89.91
2018-03-06T02:39:46.864Z,90.29
2018-03-06T02:40:46.903Z,90.24
2018-03-06T02:41:46.824Z,90.19
2018-03-06T02:42:46.821Z,90.72
2018-03-06T02:43:46.780Z,90.43
2018-03-06T02:44:46.761Z,90.43
2018-03-06T02:45:46.740Z,90.15
2018-03-06T02:46:46.810Z,90.24
2018-03-06T02:47:46.694Z,90.43
2018-03-06T02:48:46.676Z,90.15
2018-03-06T02:49:46.654Z,90.24
2018-03-06T02:50:46.669Z,90.24
2018-03-06T02:51:46.608Z,90.34
2018-03-06T02:52:46.728Z,90.62
2018-03-06T02:53:46.572Z,90.72
2018-03-06T02:54:46.653Z,90.72
2018-03-06T02:55:46.528Z,90.24
2018-03-06T02:56:46.632Z,90.43
2018-03-06T02:57:46.479Z,90.91
2018-03-06T02:58:46.463Z,90.05
2018-03-06T02:59:46.440Z,90.62
2018-03-06T03:00:46.534Z,90.43
2018-03-06T03:01:46.410Z,90.62
2018-03-06T03:02:46.456Z,90.15
2018-03-06T03:03:46.359Z,90.62
2018-03-06T03:04:46.330Z,90.62
2018-03-06T03:05:46.308Z,90.72
2018-03-06T03:06:46.315Z,90.81
2018-03-06T03:07:46.271Z,90.91
2018-03-06T03:08:46.249Z,90.53
2018-03-06T03:09:46.232Z,90.53
2018-03-06T03:10:46.243Z,90.72
2018-03-06T03:11:46.189Z,90.72
2018-03-06T03:12:46.159Z,91.09
2018-03-06T03:13:46.142Z,91.09
2018-03-06T03:14:46.119Z,91.85
2018-03-06T03:15:46.096Z,91.52
2018-03-06T03:16:46.083Z,91.90
2018-03-06T03:17:46.057Z,91.90
2018-03-06T03:18:46.033Z,91.90
2018-03-06T03:19:46.011Z,92.00
2018-03-06T03:20:45.990Z,92.38
2018-03-06T03:21:45.972Z,92.47
2018-03-06T03:22:45.946Z,91.81
2018-03-06T03:23:45.927Z,92.00
2018-03-06T03:24:45.917Z,92.19
2018-03-06T03:25:45.882Z,91.81
2018-03-06T03:26:45.860Z,91.81
2018-03-06T03:27:45.838Z,92.09
2018-03-06T03:28:45.817Z,92.66
2018-03-06T03:29:45.799Z,92.28
2018-03-06T03:30:45.773Z,92.38
2018-03-06T03:31:45.754Z,92.19
2018-03-06T03:32:45.738Z,92.28
2018-03-06T03:33:45.709Z,92.19
2018-03-06T03:34:45.688Z,91.90
2018-03-06T03:35:45.667Z,92.57
2018-03-06T03:36:45.645Z,92.57
2018-03-06T03:37:45.630Z,92.28
2018-03-06T03:38:45.611Z,92.00
2018-03-06T03:39:45.579Z,91.81
2018-03-06T03:40:45.557Z,92.09
2018-03-06T03:41:45.537Z,92.38
2018-03-06T03:42:45.515Z,92.19
2018-03-06T03:43:45.498Z,92.28
2018-03-06T03:44:45.470Z,92.57
2018-03-06T03:45:45.451Z,92.47
2018-03-06T03:46:45.431Z,92.47
2018-03-06T03:47:45.409Z,92.47
2018-03-06T03:48:45.391Z,92.47
2018-03-06T03:49:45.371Z,92.66
2018-03-06T03:50:45.341Z,92.38
2018-03-06T03:51:45.319Z,92.23
2018-03-06T03:52:45.299Z,92.28
2018-03-06T03:53:45.273Z,92.52
2018-03-06T03:54:45.259Z,92.42
2018-03-06T03:55:45.231Z,92.19
2018-03-06T03:56:45.213Z,92.33
2018-03-06T03:57:45.190Z,92.52
2018-03-06T03:58:45.169Z,92.42
2018-03-06T03:59:45.150Z,92.42
2018-03-06T04:00:45.123Z,92.38
2018-03-06T04:01:45.101Z,92.66
2018-03-06T04:02:45.081Z,92.90
2018-03-06T04:03:45.061Z,92.33
2018-03-06T04:04:45.040Z,92.61
2018-03-06T04:05:45.021Z,92.33
2018-03-06T04:06:44.995Z,92.04
2018-03-06T04:07:44.982Z,91.76
2018-03-06T04:08:44.954Z,91.85
2018-03-06T04:09:44.929Z,92.04
2018-03-06T04:10:44.906Z,92.14
2018-03-06T04:11:44.884Z,91.76
2018-03-06T04:12:44.877Z,92.52
2018-03-06T04:13:44.846Z,92.99
2018-03-06T04:14:44.829Z,92.90
2018-03-06T04:15:44.801Z,92.90
2018-03-06T04:16:44.779Z,92.99
2018-03-06T04:17:44.755Z,93.08
2018-03-06T04:18:44.739Z,93.08
2018-03-06T04:19:44.714Z,93.08
2018-03-06T04:20:44.688Z,92.90
2018-03-06T04:21:44.670Z,93.08
2018-03-06T04:22:44.646Z,92.71
2018-03-06T04:23:44.632Z,92.90
2018-03-06T04:24:44.601Z,93.08
2018-03-06T04:25:44.579Z,92.94
2018-03-06T04:26:44.560Z,93.27
2018-03-06T04:27:44.537Z,92.80
2018-03-06T04:28:44.520Z,92.94
2018-03-06T04:29:44.501Z,93.13
2018-03-06T04:30:44.472Z,93.32
2018-03-06T04:31:44.451Z,93.70
2018-03-06T04:32:44.430Z,93.23
2018-03-06T04:33:44.411Z,92.76
2018-03-06T04:34:44.387Z,92.76
2018-03-06T04:35:44.371Z,93.04
2018-03-06T04:36:44.342Z,93.32
2018-03-06T04:37:44.319Z,93.27
2018-03-06T04:38:44.298Z,92.76
2018-03-06T04:39:44.279Z,92.57
2018-03-06T04:40:44.255Z,92.57
2018-03-06T04:41:44.233Z,92.09
2018-03-06T04:42:44.220Z,92.76
2018-03-06T04:43:44.188Z,92.28
2018-03-06T04:44:44.167Z,92.47
2018-03-06T04:45:44.150Z,92.47
2018-03-06T04:46:44.127Z,92.28
2018-03-06T04:47:44.108Z,92.38
2018-03-06T04:48:44.081Z,92.57
2018-03-06T04:49:44.059Z,92.76
2018-03-06T04:50:44.041Z,92.38
2018-03-06T04:51:44.016Z,92.57
2018-03-06T04:52:43.999Z,92.57
2018-03-06T04:53:43.973Z,92.38
2018-03-06T04:54:43.948Z,92.76
2018-03-06T04:55:43.929Z,92.57
2018-03-06T04:56:43.915Z,92.57
2018-03-06T04:57:43.882Z,92.57
2018-03-06T04:58:43.870Z,92.57
2018-03-06T04:59:43.861Z,92.47
2018-03-06T05:00:43.818Z,92.66
2018-03-06T05:01:43.850Z,92.38
2018-03-06T05:02:43.776Z,92.57
2018-03-06T05:03:43.752Z,92.19
2018-03-06T05:04:43.741Z,92.57
2018-03-06T05:05:43.711Z,92.57
2018-03-06T05:06:43.690Z,92.57
2018-03-06T05:07:43.720Z,92.76
2018-03-06T05:08:43.646Z,92.38
2018-03-06T05:09:43.623Z,92.09
2018-03-06T05:10:43.599Z,92.28
2018-03-06T05:11:43.582Z,92.57
2018-03-06T05:12:43.555Z,92.47
2018-03-06T05:13:43.567Z,92.38
2018-03-06T05:14:43.521Z,92.47
2018-03-06T05:15:43.590Z,92.28
2018-03-06T05:16:43.467Z,92.38
2018-03-06T05:17:43.499Z,92.57
2018-03-06T05:18:43.428Z,92.38
2018-03-06T05:19:43.410Z,92.28
2018-03-06T05:20:43.380Z,92.38
2018-03-06T05:21:43.458Z,92.28
2018-03-06T05:22:43.344Z,92.38
2018-03-06T05:23:43.325Z,92.38
2018-03-06T05:24:43.297Z,92.38
2018-03-06T05:25:43.288Z,92.09
2018-03-06T05:26:43.250Z,92.47
2018-03-06T05:27:43.231Z,92.66
2018-03-06T05:28:43.212Z,92.57
2018-03-06T05:29:43.191Z,92.57
2018-03-06T05:30:43.164Z,92.76
2018-03-06T05:31:43.144Z,92.38
2018-03-06T05:32:43.117Z,92.76
2018-03-06T05:33:43.100Z,92.57
2018-03-06T05:34:43.076Z,92.57
2018-03-06T05:35:43.055Z,92.38
2018-03-06T05:36:43.033Z,92.94
2018-03-06T05:37:43.012Z,93.04
2018-03-06T05:38:42.991Z,93.23
2018-03-06T05:39:42.970Z,92.85
2018-03-06T05:40:42.942Z,93.13
2018-03-06T05:41:42.920Z,93.04
2018-03-06T05:42:42.898Z,93.04
2018-03-06T05:43:42.877Z,92.76
2018-03-06T05:44:42.860Z,92.94
2018-03-06T05:45:42.840Z,93.13
2018-03-06T05:46:42.819Z,92.85
2018-03-06T05:47:42.790Z,93.13
2018-03-06T05:48:42.765Z,93.04
2018-03-06T05:49:42.747Z,93.23
2018-03-06T05:50:42.731Z,93.23
2018-03-06T05:51:42.705Z,92.47
2018-03-06T05:52:42.682Z,92.57
2018-03-06T05:53:42.664Z,92.47
2018-03-06T05:54:42.641Z,92.19
2018-03-06T05:55:42.621Z,92.28
2018-03-06T05:56:42.596Z,92.94
2018-03-06T05:57:42.571Z,93.04
2018-03-06T05:58:42.547Z,93.23
2018-03-06T05:59:42.530Z,93.04
2018-03-06T06:00:42.509Z,92.57
2018-03-06T06:01:42.479Z,92.94
2018-03-06T06:02:42.463Z,93.04
2018-03-06T06:03:42.439Z,93.13
2018-03-06T06:04:42.416Z,93.04
2018-03-06T06:05:42.461Z,93.32
2018-03-06T06:06:42.376Z,93.04
2018-03-06T06:07:42.372Z,92.47
2018-03-06T06:08:42.330Z,92.47
2018-03-06T06:09:42.304Z,93.23
2018-03-06T06:10:42.292Z,93.13
2018-03-06T06:11:42.263Z,93.04
2018-03-06T06:12:42.239Z,93.42
2018-03-06T06:13:42.220Z,92.94
2018-03-06T06:14:42.196Z,93.08
2018-03-06T06:15:42.177Z,92.94
2018-03-06T06:16:42.153Z,93.32
2018-03-06T06:17:42.130Z,92.94
2018-03-06T06:18:42.108Z,92.76
2018-03-06T06:19:42.093Z,93.13
2018-03-06T06:20:42.074Z,92.85
2018-03-06T06:21:42.045Z,92.47
2018-03-06T06:22:42.026Z,92.66
2018-03-06T06:23:42.000Z,92.00
2018-03-06T06:24:41.984Z,92.38
2018-03-06T06:25:41.956Z,92.38
2018-03-06T06:26:41.939Z,92.57
2018-03-06T06:27:41.917Z,92.57
2018-03-06T06:28:41.900Z,92.66
2018-03-06T06:29:41.877Z,92.38
2018-03-06T06:30:41.848Z,92.42
2018-03-06T06:31:41.828Z,92.42
2018-03-06T06:32:41.806Z,92.61
2018-03-06T06:33:41.801Z,92.61
2018-03-06T06:34:41.765Z,92.52
2018-03-06T06:35:41.740Z,92.61
2018-03-06T06:36:41.718Z,92.42
2018-03-06T06:37:41.696Z,92.61
2018-03-06T06:38:41.680Z,92.23
2018-03-06T06:39:41.659Z,92.23
2018-03-06T06:40:41.630Z,92.42
2018-03-06T06:41:41.611Z,92.42
2018-03-06T06:42:41.593Z,92.42
2018-03-06T06:43:41.572Z,92.61
2018-03-06T06:44:41.551Z,91.95
2018-03-06T06:45:41.524Z,91.66
2018-03-06T06:46:41.506Z,91.71
2018-03-06T06:47:41.489Z,91.52
2018-03-06T06:48:41.461Z,90.67
2018-03-06T06:49:41.440Z,89.95
2018-03-06T06:50:41.419Z,90.33
2018-03-06T06:51:41.399Z,89.39
2018-03-06T06:52:41.386Z,89.20
2018-03-06T06:53:41.360Z,89.29
2018-03-06T06:54:41.344Z,89.29
2018-03-06T06:55:41.331Z,89.39
2018-03-06T06:56:41.301Z,88.67
2018-03-06T06:57:41.281Z,88.20
2018-03-06T06:58:41.268Z,87.43
2018-03-06T06:59:41.244Z,87.10
2018-03-06T07:00:41.225Z,86.43
2018-03-06T07:01:41.206Z,85.96
2018-03-06T07:02:41.193Z,84.86
2018-03-06T07:03:41.172Z,84.86
2018-03-06T07:04:41.149Z,84.95
2018-03-06T07:05:41.134Z,84.10
2018-03-06T07:06:41.114Z,84.48
2018-03-06T07:07:41.100Z,84.01
2018-03-06T07:08:41.080Z,84.29
2018-03-06T07:09:41.065Z,83.39
2018-03-06T07:10:41.052Z,83.29
2018-03-06T07:11:41.030Z,83.25
2018-03-06T07:12:41.011Z,83.15
2018-03-06T07:13:41.000Z,83.25
2018-03-06T07:14:40.980Z,83.97
2018-03-06T07:15:40.965Z,84.63
2018-03-06T07:16:40.948Z,84.72
2018-03-06T07:17:40.940Z,85.11
2018-03-06T07:18:40.912Z,85.01
2018-03-06T07:19:40.899Z,84.91
2018-03-06T07:20:40.881Z,85.15
2018-03-06T07:21:40.866Z,84.77
2018-03-06T07:22:40.852Z,84.72
2018-03-06T07:23:40.835Z,83.86
2018-03-06T07:24:40.832Z,83.48
2018-03-06T07:25:40.805Z,82.57
2018-03-06T07:26:40.792Z,81.90
2018-03-06T07:27:40.785Z,81.33
2018-03-06T07:28:40.761Z,81.52
2018-03-06T07:29:40.800Z,81.05
2018-03-06T07:30:40.741Z,80.66
2018-03-06T07:31:40.725Z,80.52
2018-03-06T07:32:40.712Z,80.33
2018-03-06T07:33:40.696Z,79.94
2018-03-06T07:34:40.691Z,80.52
2018-03-06T07:35:40.680Z,79.80
2018-03-06T07:36:40.659Z,78.46
2018-03-06T07:37:40.662Z,77.74
2018-03-06T07:38:40.641Z,76.59
2018-03-06T07:39:40.628Z,74.44
2018-03-06T07:40:40.620Z,71.91
2018-03-06T07:41:40.608Z,70.76
2018-03-06T07:42:40.598Z,68.76
2018-03-06T07:43:40.588Z,65.83
2018-03-06T07:44:40.575Z,63.45
2018-03-06T07:45:40.716Z,61.95
2018-03-06T07:46:40.553Z,61.00
2018-03-06T07:47:40.649Z,60.42
2018-03-06T07:48:40.541Z,61.32
2018-03-06T07:49:40.591Z,63.23
2018-03-06T07:50:40.518Z,63.80
2018-03-06T07:51:40.562Z,64.56
2018-03-06T07:52:40.500Z,65.04
2018-03-06T07:53:40.545Z,63.26
2018-03-06T07:54:40.483Z,63.23
2018-03-06T07:55:40.528Z,63.16
2018-03-06T07:56:40.466Z,62.65
2018-03-06T07:57:40.461Z,64.09
2018-03-06T07:58:40.451Z,63.26
2018-03-06T07:59:40.451Z,61.95
2018-03-06T08:00:40.436Z,61.10
2018-03-06T08:01:40.422Z,59.41
2018-03-06T08:02:40.418Z,58.67
2018-03-06T08:03:40.410Z,57.14
2018-03-06T08:04:40.399Z,55.93
2018-03-06T08:05:40.390Z,54.78
2018-03-06T08:06:40.382Z,53.85
2018-03-06T08:07:40.378Z,52.54
2018-03-06T08:08:40.366Z,51.42
2018-03-06T08:09:40.371Z,50.56
2018-03-06T08:10:40.360Z,49.62
2018-03-06T08:11:40.376Z,49.86
2018-03-06T08:12:40.349Z,50.36
2018-03-06T08:13:40.334Z,49.02
2018-03-06T08:14:40.328Z,48.28
2018-03-06T08:15:40.322Z,48.28
2018-03-06T08:16:40.323Z,48.02
2018-03-06T08:17:40.310Z,47.20
2018-03-06T08:18:40.311Z,48.68
2018-03-06T08:19:40.297Z,50.60
2018-03-06T08:20:40.291Z,50.43
2018-03-06T08:21:40.286Z,48.93
2018-03-06T08:22:40.342Z,47.99
2018-03-06T08:23:40.279Z,46.94
2018-03-06T08:24:40.273Z,46.94
2018-03-06T08:25:40.268Z,47.92
2018-03-06T08:26:40.412Z,49.95
2018-03-06T08:27:40.256Z,49.95
2018-03-06T08:28:40.302Z,49.29
2018-03-06T08:29:40.246Z,49.50
2018-03-06T08:30:40.242Z,49.29
2018-03-06T08:31:40.241Z,49.95
2018-03-06T08:32:40.233Z,49.79
2018-03-06T08:33:40.233Z,48.40
2018-03-06T08:34:40.222Z,46.89
2018-03-06T08:35:40.216Z,45.47
2018-03-06T08:36:40.214Z,44.42
2018-03-06T08:37:40.229Z,43.87
2018-03-06T08:38:40.207Z,44.01
2018-03-06T08:39:40.205Z,45.23
2018-03-06T08:40:40.200Z,45.45
2018-03-06T08:41:40.198Z,45.36
2018-03-06T08:42:40.192Z,44.78
2018-03-06T08:43:40.229Z,45.28
2018-03-06T08:44:40.182Z,43.77
2018-03-06T08:45:40.181Z,43.79
2018-03-06T08:46:40.179Z,42.64
2018-03-06T08:47:40.172Z,43.24
2018-03-06T08:48:40.170Z,44.32
2018-03-06T08:49:40.172Z,43.84
2018-03-06T08:50:40.162Z,43.74
2018-03-06T08:51:40.157Z,43.96
2018-03-06T08:52:40.154Z,43.57
2018-03-06T08:53:40.152Z,43.46
2018-03-06T08:54:40.152Z,43.57
2018-03-06T08:55:40.145Z,44.03
2018-03-06T08:56:40.148Z,44.03
2018-03-06T08:57:40.159Z,43.70
2018-03-06T08:58:40.138Z,42.73
2018-03-06T08:59:40.139Z,41.41
2018-03-06T09:00:40.129Z,41.22
2018-03-06T09:01:40.125Z,41.29
2018-03-06T09:02:40.120Z,41.39
2018-03-06T09:03:40.134Z,41.77
2018-03-06T09:04:40.114Z,41.22
2018-03-06T09:05:40.111Z,41.22
2018-03-06T09:06:40.109Z,41.31
2018-03-06T09:07:40.108Z,41.67
2018-03-06T09:08:40.101Z,42.60
2018-03-06T09:09:40.102Z,42.90
2018-03-06T09:10:40.098Z,42.90
2018-03-06T09:11:40.099Z,42.93
2018-03-06T09:12:40.089Z,42.33
2018-03-06T09:13:40.089Z,41.96
2018-03-06T09:14:40.090Z,42.40
2018-03-06T09:15:40.082Z,43.65
2018-03-06T09:16:40.081Z,45.07
2018-03-06T09:17:40.073Z,44.70
2018-03-06T09:18:40.077Z,43.48
2018-03-06T09:19:40.068Z,43.10
2018-03-06T09:20:40.061Z,42.73
2018-03-06T09:21:40.057Z,42.06
2018-03-06T09:22:40.058Z,42.37
2018-03-06T09:23:40.063Z,41.05
2018-03-06T09:24:40.052Z,40.39
2018-03-06T09:25:40.046Z,40.20
2018-03-06T09:26:40.050Z,38.99
2018-03-06T09:27:40.046Z,37.95
2018-03-06T09:28:40.038Z,37.48
2018-03-06T09:29:40.039Z,36.51
2018-03-06T09:30:40.030Z,36.71
2018-03-06T09:31:40.027Z,36.52
2018-03-06T09:32:40.024Z,35.93
2018-03-06T09:33:40.018Z,36.31
2018-03-06T09:34:40.021Z,37.06
2018-03-06T09:35:40.020Z,38.35
2018-03-06T09:36:40.010Z,39.99
2018-03-06T09:37:40.008Z,40.28
2018-03-06T09:38:40.014Z,40.37
2018-03-06T09:39:40.005Z,40.39
2018-03-06T09:40:39.999Z,39.91
2018-03-06T09:41:40.001Z,38.87
2018-03-06T09:42:39.992Z,38.91
2018-03-06T09:43:39.988Z,37.35
2018-03-06T09:44:39.980Z,37.72
2018-03-06T09:45:39.978Z,37.54
2018-03-06T09:46:39.985Z,37.97
2018-03-06T09:47:39.979Z,40.43
2018-03-06T09:48:39.967Z,41.94
2018-03-06T09:49:39.961Z,42.61
2018-03-06T09:50:39.960Z,42.37
2018-03-06T09:51:39.955Z,41.33
2018-03-06T09:52:39.949Z,40.68
2018-03-06T09:53:39.949Z,40.01
2018-03-06T09:54:39.941Z,39.45
2018-03-06T09:55:39.949Z,38.39
2018-03-06T09:56:39.929Z,37.64
2018-03-06T09:57:39.926Z,38.02
2018-03-06T09:58:39.919Z,37.66
2018-03-06T09:59:39.916Z,37.62
2018-03-06T10:00:39.914Z,37.81
2018-03-06T10:01:39.906Z,38.01
2018-03-06T10:02:39.904Z,37.56
2018-03-06T10:03:39.902Z,37.56
2018-03-06T10:04:39.888Z,37.45
2018-03-06T10:05:39.885Z,36.79
2018-03-06T10:06:39.878Z,36.81
2018-03-06T10:07:39.929Z,36.23
2018-03-06T10:08:39.871Z,35.85
2018-03-06T10:09:39.872Z,36.41
2018-03-06T10:10:39.863Z,36.85
2018-03-06T10:11:39.857Z,37.45
2018-03-06T10:12:39.849Z,37.46
2018-03-06T10:13:39.846Z,36.77
2018-03-06T10:14:39.837Z,37.91
2018-03-06T10:15:39.844Z,37.95
2018-03-06T10:16:39.843Z,36.31
2018-03-06T10:17:39.820Z,36.60
2018-03-06T10:18:39.826Z,35.75
2018-03-06T10:19:39.809Z,36.23
2018-03-06T10:20:39.809Z,36.35
2018-03-06T10:21:39.795Z,36.06
2018-03-06T10:22:39.793Z,35.96
2018-03-06T10:23:39.788Z,35.67
2018-03-06T10:24:39.780Z,36.15
2018-03-06T10:25:39.774Z,35.67
2018-03-06T10:26:39.770Z,35.73
2018-03-06T10:27:39.762Z,37.35
2018-03-06T10:28:39.760Z,37.66
2018-03-06T10:29:39.751Z,37.48
2018-03-06T10:30:39.748Z,36.68
2018-03-06T10:31:39.740Z,38.28
2018-03-06T10:32:39.735Z,38.59
2018-03-06T10:33:39.727Z,38.12
2018-03-06T10:34:39.859Z,37.83
2018-03-06T10:35:39.725Z,37.95
2018-03-06T10:36:39.715Z,37.43
2018-03-06T10:37:39.701Z,38.47
2018-03-06T10:38:39.782Z,39.43
2018-03-06T10:39:39.691Z,39.81
2018-03-06T10:40:39.758Z,39.53
2018-03-06T10:41:39.676Z,39.83
2018-03-06T10:42:39.718Z,38.66
2018-03-06T10:43:39.670Z,38.85
2018-03-06T10:44:39.664Z,39.24
2018-03-06T10:45:39.649Z,39.64
2018-03-06T10:46:39.671Z,38.78
2018-03-06T10:47:39.635Z,38.78
2018-03-06T10:48:39.630Z,38.97
2018-03-06T10:49:39.658Z,38.45
2018-03-06T10:50:39.619Z,39.03
2018-03-06T10:51:39.610Z,39.51
2018-03-06T10:52:39.600Z,39.89
2018-03-06T10:53:39.595Z,40.08
2018-03-06T10:54:39.595Z,40.16
2018-03-06T10:55:39.582Z,40.08
2018-03-06T10:56:39.575Z,39.70
2018-03-06T10:57:39.566Z,39.87
2018-03-06T10:58:39.562Z,40.52
2018-03-06T10:59:39.562Z,40.64
2018-03-06T11:00:39.547Z,40.64
2018-03-06T11:01:39.540Z,40.66
2018-03-06T11:02:39.530Z,39.78
2018-03-06T11:03:39.524Z,41.90
2018-03-06T11:04:39.515Z,44.09
2018-03-06T11:05:39.509Z,45.67
2018-03-06T11:06:39.502Z,46.26
2018-03-06T11:07:39.495Z,45.98
2018-03-06T11:08:39.500Z,46.26
2018-03-06T11:09:39.479Z,46.00
2018-03-06T11:10:39.470Z,44.61
2018-03-06T11:11:39.468Z,43.67
2018-03-06T11:12:39.460Z,42.35
2018-03-06T11:13:39.444Z,41.60
2018-03-06T11:14:39.486Z,40.66
2018-03-06T11:15:39.434Z,39.89
2018-03-06T11:16:39.421Z,38.91
2018-03-06T11:17:39.416Z,40.43
2018-03-06T11:18:39.406Z,41.12
2018-03-06T11:19:39.499Z,40.47
2018-03-06T11:20:39.385Z,40.18
2018-03-06T11:21:39.381Z,40.08
2018-03-06T11:22:39.371Z,39.99
2018-03-06T11:23:39.378Z,39.99
2018-03-06T11:24:39.396Z,41.54
2018-03-06T11:25:39.351Z,43.65
2018-03-06T11:26:39.339Z,43.65
2018-03-06T11:27:39.333Z,43.94
2018-03-06T11:28:39.328Z,43.38
2018-03-06T11:29:39.315Z,43.38
2018-03-06T11:30:39.320Z,42.98
2018-03-06T11:31:39.298Z,44.30
2018-03-06T11:32:39.292Z,44.30
2018-03-06T11:33:39.289Z,44.42
2018-03-06T11:34:39.279Z,43.48
2018-03-06T11:35:39.263Z,42.83
2018-03-06T11:36:39.258Z,43.00
2018-03-06T11:37:39.250Z,42.23
2018-03-06T11:38:39.240Z,42.25
2018-03-06T11:39:39.229Z,41.79
2018-03-06T11:40:39.220Z,41.22
2018-03-06T11:41:39.213Z,40.95
2018-03-06T11:42:39.208Z,42.52
2018-03-06T11:43:39.202Z,42.71
2018-03-06T11:44:39.192Z,42.81
2018-03-06T11:45:39.181Z,42.90
2018-03-06T11:46:39.169Z,42.64
2018-03-06T11:47:39.172Z,42.08
2018-03-06T11:48:39.155Z,41.50
2018-03-06T11:49:39.147Z,42.16
2018-03-06T11:50:39.142Z,41.96
2018-03-06T11:51:39.132Z,41.89
2018-03-06T11:52:39.116Z,41.79
2018-03-06T11:53:39.108Z,41.79
2018-03-06T11:54:39.102Z,41.05
2018-03-06T11:55:39.091Z,40.66
2018-03-06T11:56:39.080Z,40.18
2018-03-06T11:57:39.076Z,40.20
2018-03-06T11:58:39.081Z,40.11
2018-03-06T11:59:39.052Z,39.99
2018-03-06T12:00:39.050Z,40.18
2018-03-06T12:01:39.045Z,40.18
2018-03-06T12:02:39.029Z,40.56
2018-03-06T12:03:39.017Z,40.28
2018-03-06T12:04:39.009Z,40.37
2018-03-06T12:05:39.004Z,40.18
2018-03-06T12:06:38.992Z,40.18
2018-03-06T12:07:38.989Z,40.37
2018-03-06T12:08:38.985Z,40.64
2018-03-06T12:09:38.966Z,40.93
2018-03-06T12:10:38.960Z,41.12
2018-03-06T12:11:38.951Z,41.49
2018-03-06T12:12:38.936Z,42.25
2018-03-06T12:13:38.928Z,42.23
2018-03-06T12:14:38.923Z,43.07
2018-03-06T12:15:38.910Z,44.49
2018-03-06T12:16:38.897Z,45.37
2018-03-06T12:17:38.886Z,44.80
2018-03-06T12:18:38.922Z,44.32
2018-03-06T12:19:38.870Z,44.03
2018-03-06T12:20:38.857Z,44.06
2018-03-06T12:21:38.850Z,43.87
2018-03-06T12:22:38.840Z,44.06
2018-03-06T12:23:38.830Z,43.67
2018-03-06T12:24:38.822Z,42.71
2018-03-06T12:25:38.809Z,42.73
2018-03-06T12:26:38.815Z,42.73
2018-03-06T12:27:38.789Z,43.00
2018-03-06T12:28:38.780Z,43.55
2018-03-06T12:29:38.780Z,44.32
2018-03-06T12:30:38.760Z,44.42
2018-03-06T12:31:38.752Z,44.61
2018-03-06T12:32:38.744Z,44.70
2018-03-06T12:33:38.727Z,44.32
2018-03-06T12:34:38.722Z,44.23
2018-03-06T12:35:38.714Z,44.32
2018-03-06T12:36:38.700Z,44.03
2018-03-06T12:37:38.688Z,43.84
2018-03-06T12:38:38.680Z,44.15
2018-03-06T12:39:38.665Z,44.23
2018-03-06T12:40:38.662Z,45.14
2018-03-06T12:41:38.657Z,46.48
2018-03-06T12:42:38.639Z,46.96
2018-03-06T12:43:38.635Z,46.00
2018-03-06T12:44:38.618Z,46.67
2018-03-06T12:45:38.600Z,46.50
2018-03-06T12:46:38.596Z,45.93
2018-03-06T12:47:38.586Z,45.86
2018-03-06T12:48:38.570Z,45.28
2018-03-06T12:49:38.562Z,45.54
2018-03-06T12:50:38.551Z,45.93
2018-03-06T12:51:38.552Z,46.03
2018-03-06T12:52:38.533Z,45.67